sensor_id;sensor_type;location;lat;lon;timestamp;pressure;altitude;pressure_sealevel;temperature;humidity
46448;BME280;32145;50.390;30.778;2022-09-19T00:00:20;98396.06;;;9.46;78.61
46448;BME280;32145;50.390;30.778;2022-09-19T00:03:04;98383.38;;;9.51;78.33
46448;BME280;32145;50.390;30.778;2022-09-19T00:05:48;98400.16;;;9.48;78.58
46448;BME280;32145;50.390;30.778;2022-09-19T00:08:32;98395.00;;;9.47;78.53
46448;BME280;32145;50.390;30.778;2022-09-19T00:11:17;98404.22;;;9.51;78.20
46448;BME280;32145;50.390;30.778;2022-09-19T00:14:01;98404.78;;;9.53;78.21
46448;BME280;32145;50.390;30.778;2022-09-19T00:16:47;98403.16;;;9.57;77.77
46448;BME280;32145;50.390;30.778;2022-09-19T00:19:31;98402.88;;;9.53;77.63
46448;BME280;32145;50.390;30.778;2022-09-19T00:22:15;98405.59;;;9.59;77.42
46448;BME280;32145;50.390;30.778;2022-09-19T00:25:00;98406.94;;;9.56;77.86
46448;BME280;32145;50.390;30.778;2022-09-19T00:27:43;98401.53;;;9.56;77.10
46448;BME280;32145;50.390;30.778;2022-09-19T00:30:27;98412.13;;;9.63;76.97
46448;BME280;32145;50.390;30.778;2022-09-19T00:33:13;98408.06;;;9.60;77.34
46448;BME280;32145;50.390;30.778;2022-09-19T00:35:57;98407.28;;;9.65;76.95
46448;BME280;32145;50.390;30.778;2022-09-19T00:38:43;98407.03;;;9.72;76.69
46448;BME280;32145;50.390;30.778;2022-09-19T00:41:27;98396.97;;;9.62;76.33
46448;BME280;32145;50.390;30.778;2022-09-19T00:47:37;98420.50;;;9.61;76.67
46448;BME280;32145;50.390;30.778;2022-09-19T00:50:26;98427.00;;;9.60;76.92
46448;BME280;32145;50.390;30.778;2022-09-19T00:53:15;98412.69;;;9.65;76.39
46448;BME280;32145;50.390;30.778;2022-09-19T00:56:01;98418.91;;;9.65;76.52
46448;BME280;32145;50.390;30.778;2022-09-19T00:58:45;98420.53;;;9.66;76.94
46448;BME280;32145;50.390;30.778;2022-09-19T01:01:31;98424.34;;;9.71;76.73
46448;BME280;32145;50.390;30.778;2022-09-19T01:04:17;98424.56;;;9.64;77.57
46448;BME280;32145;50.390;30.778;2022-09-19T01:07:07;98429.19;;;9.63;77.76
46448;BME280;32145;50.390;30.778;2022-09-19T01:10:00;98443.28;;;9.71;77.31
46448;BME280;32145;50.390;30.778;2022-09-19T01:12:50;98435.19;;;9.71;77.65
46448;BME280;32145;50.390;30.778;2022-09-19T01:15:46;98447.09;;;9.75;77.15
46448;BME280;32145;50.390;30.778;2022-09-19T01:18:35;98445.50;;;9.79;77.35
46448;BME280;32145;50.390;30.778;2022-09-19T01:21:23;98450.91;;;9.79;77.61
46448;BME280;32145;50.390;30.778;2022-09-19T01:24:36;98446.03;;;9.81;77.45
46448;BME280;32145;50.390;30.778;2022-09-19T01:27:54;98455.50;;;9.84;78.04
46448;BME280;32145;50.390;30.778;2022-09-19T01:30:42;98450.91;;;9.84;78.06
46448;BME280;32145;50.390;30.778;2022-09-19T01:33:29;98454.16;;;9.81;78.50
46448;BME280;32145;50.390;30.778;2022-09-19T01:36:13;98459.06;;;9.89;78.23
46448;BME280;32145;50.390;30.778;2022-09-19T01:39:02;98450.66;;;9.91;78.06
46448;BME280;32145;50.390;30.778;2022-09-19T01:41:48;98450.16;;;9.94;78.42
46448;BME280;32145;50.390;30.778;2022-09-19T01:44:33;98450.97;;;9.95;78.13
46448;BME280;32145;50.390;30.778;2022-09-19T01:47:21;98460.72;;;10.01;78.18
46448;BME280;32145;50.390;30.778;2022-09-19T01:50:18;98454.78;;;9.99;78.25
46448;BME280;32145;50.390;30.778;2022-09-19T01:53:12;98456.41;;;10.05;78.12
46448;BME280;32145;50.390;30.778;2022-09-19T01:56:04;98458.59;;;10.08;78.26
46448;BME280;32145;50.390;30.778;2022-09-19T01:58:55;98474.03;;;10.08;78.01
46448;BME280;32145;50.390;30.778;2022-09-19T02:01:49;98473.75;;;10.09;78.14
46448;BME280;32145;50.390;30.778;2022-09-19T02:04:38;98457.50;;;10.04;79.16
46448;BME280;32145;50.390;30.778;2022-09-19T02:07:27;98468.91;;;10.06;78.54
46448;BME280;32145;50.390;30.778;2022-09-19T02:10:18;98479.47;;;10.13;78.45
46448;BME280;32145;50.390;30.778;2022-09-19T02:13:04;98491.94;;;10.14;78.67
46448;BME280;32145;50.390;30.778;2022-09-19T02:15:52;98498.16;;;10.14;78.13
46448;BME280;32145;50.390;30.778;2022-09-19T02:18:43;98498.16;;;10.14;79.08
46448;BME280;32145;50.390;30.778;2022-09-19T02:21:33;98483.53;;;10.15;77.99
46448;BME280;32145;50.390;30.778;2022-09-19T02:24:23;98507.38;;;10.18;77.63
46448;BME280;32145;50.390;30.778;2022-09-19T02:27:14;98509.00;;;10.14;78.08
46448;BME280;32145;50.390;30.778;2022-09-19T02:30:03;98505.72;;;10.12;77.93
46448;BME280;32145;50.390;30.778;2022-09-19T02:32:49;98518.75;;;10.15;77.23
46448;BME280;32145;50.390;30.778;2022-09-19T02:35:40;98518.22;;;10.18;77.71
46448;BME280;32145;50.390;30.778;2022-09-19T02:38:33;98524.44;;;10.19;77.71
46448;BME280;32145;50.390;30.778;2022-09-19T02:41:22;98526.34;;;10.18;77.20
46448;BME280;32145;50.390;30.778;2022-09-19T02:44:13;98534.16;;;10.15;76.84
46448;BME280;32145;50.390;30.778;2022-09-19T02:47:08;98538.81;;;10.19;76.36
46448;BME280;32145;50.390;30.778;2022-09-19T02:49:57;98543.66;;;10.17;76.96
46448;BME280;32145;50.390;30.778;2022-09-19T02:52:46;98545.25;;;10.13;76.62
46448;BME280;32145;50.390;30.778;2022-09-19T02:55:35;98554.22;;;10.19;77.37
46448;BME280;32145;50.390;30.778;2022-09-19T02:58:23;98546.09;;;10.14;76.90
46448;BME280;32145;50.390;30.778;2022-09-19T03:01:14;98557.75;;;10.19;77.27
46448;BME280;32145;50.390;30.778;2022-09-19T03:04:01;98555.56;;;10.16;76.90
46448;BME280;32145;50.390;30.778;2022-09-19T03:06:51;98554.72;;;10.11;77.21
46448;BME280;32145;50.390;30.778;2022-09-19T03:09:41;98559.09;;;10.12;77.76
46448;BME280;32145;50.390;30.778;2022-09-19T03:12:29;98560.19;;;10.16;77.09
46448;BME280;32145;50.390;30.778;2022-09-19T03:15:16;98563.97;;;10.15;77.77
46448;BME280;32145;50.390;30.778;2022-09-19T03:18:02;98572.34;;;10.13;77.96
46448;BME280;32145;50.390;30.778;2022-09-19T03:20:53;98569.09;;;10.11;78.41
46448;BME280;32145;50.390;30.778;2022-09-19T03:23:40;98576.13;;;10.12;78.00
46448;BME280;32145;50.390;30.778;2022-09-19T03:26:27;98577.47;;;10.10;78.40
46448;BME280;32145;50.390;30.778;2022-09-19T03:29:12;98586.16;;;10.12;78.78
46448;BME280;32145;50.390;30.778;2022-09-19T03:31:56;98585.34;;;10.11;78.58
46448;BME280;32145;50.390;30.778;2022-09-19T03:34:40;98596.75;;;10.18;77.99
46448;BME280;32145;50.390;30.778;2022-09-19T03:37:24;98594.56;;;10.15;78.58
46448;BME280;32145;50.390;30.778;2022-09-19T03:40:09;98598.91;;;10.16;78.38
46448;BME280;32145;50.390;30.778;2022-09-19T03:42:55;98609.72;;;10.16;77.80
46448;BME280;32145;50.390;30.778;2022-09-19T03:45:38;98610.84;;;10.21;77.99
46448;BME280;32145;50.390;30.778;2022-09-19T03:48:22;98610.84;;;10.21;78.17
46448;BME280;32145;50.390;30.778;2022-09-19T03:51:07;98611.94;;;10.25;77.50
46448;BME280;32145;50.390;30.778;2022-09-19T03:53:51;98628.75;;;10.27;76.91
46448;BME280;32145;50.390;30.778;2022-09-19T03:56:35;98635.25;;;10.26;77.83
46448;BME280;32145;50.390;30.778;2022-09-19T03:59:20;98642.56;;;10.25;77.71
46448;BME280;32145;50.390;30.778;2022-09-19T04:02:05;98645.81;;;10.27;77.31
46448;BME280;32145;50.390;30.778;2022-09-19T04:04:49;98648.53;;;10.27;77.62
46448;BME280;32145;50.390;30.778;2022-09-19T04:07:33;98657.72;;;10.26;77.54
46448;BME280;32145;50.390;30.778;2022-09-19T04:10:17;98663.47;;;10.30;76.57
46448;BME280;32145;50.390;30.778;2022-09-19T04:13:02;98673.22;;;10.31;76.43
46448;BME280;32145;50.390;30.778;2022-09-19T04:15:47;98672.91;;;10.27;76.74
46448;BME280;32145;50.390;30.778;2022-09-19T04:18:32;98683.47;;;10.29;77.09
46448;BME280;32145;50.390;30.778;2022-09-19T04:21:16;98679.72;;;10.35;76.87
46448;BME280;32145;50.390;30.778;2022-09-19T04:24:01;98688.38;;;10.32;76.70
46448;BME280;32145;50.390;30.778;2022-09-19T04:26:45;98691.66;;;10.34;75.71
46448;BME280;32145;50.390;30.778;2022-09-19T04:29:29;98700.31;;;10.36;76.17
46448;BME280;32145;50.390;30.778;2022-09-19T04:32:14;98699.78;;;10.34;76.26
46448;BME280;32145;50.390;30.778;2022-09-19T04:34:58;98696.53;;;10.37;75.78
46448;BME280;32145;50.390;30.778;2022-09-19T04:37:42;98708.97;;;10.33;76.11
46448;BME280;32145;50.390;30.778;2022-09-19T04:40:26;98710.38;;;10.41;75.88
46448;BME280;32145;50.390;30.778;2022-09-19T04:43:12;98717.78;;;10.46;76.26
46448;BME280;32145;50.390;30.778;2022-09-19T04:45:56;98727.53;;;10.47;75.93
46448;BME280;32145;50.390;30.778;2022-09-19T04:48:42;98721.31;;;10.51;75.53
46448;BME280;32145;50.390;30.778;2022-09-19T04:51:26;98728.63;;;10.51;75.20
46448;BME280;32145;50.390;30.778;2022-09-19T04:54:11;98724.00;;;10.51;75.30
46448;BME280;32145;50.390;30.778;2022-09-19T04:56:55;98735.69;;;10.52;75.27
46448;BME280;32145;50.390;30.778;2022-09-19T04:59:40;98742.47;;;10.54;75.47
46448;BME280;32145;50.390;30.778;2022-09-19T05:02:23;98739.22;;;10.57;75.48
46448;BME280;32145;50.390;30.778;2022-09-19T05:05:09;98747.94;;;10.60;74.91
46448;BME280;32145;50.390;30.778;2022-09-19T05:07:53;98749.03;;;10.64;74.91
46448;BME280;32145;50.390;30.778;2022-09-19T05:10:38;98758.81;;;10.65;74.21
46448;BME280;32145;50.390;30.778;2022-09-19T05:13:22;98762.84;;;10.62;75.26
46448;BME280;32145;50.390;30.778;2022-09-19T05:16:07;98758.28;;;10.68;74.63
46448;BME280;32145;50.390;30.778;2022-09-19T05:18:51;98759.34;;;10.67;74.98
46448;BME280;32145;50.390;30.778;2022-09-19T05:21:36;98772.13;;;10.72;74.16
46448;BME280;32145;50.390;30.778;2022-09-19T05:24:20;98766.94;;;10.70;74.22
46448;BME280;32145;50.390;30.778;2022-09-19T05:27:04;98788.38;;;10.72;73.80
46448;BME280;32145;50.390;30.778;2022-09-19T05:29:48;98779.13;;;10.62;74.37
46448;BME280;32145;50.390;30.778;2022-09-19T05:32:32;98792.06;;;10.55;75.41
46448;BME280;32145;50.390;30.778;2022-09-19T05:35:16;98800.28;;;10.65;75.12
46448;BME280;32145;50.390;30.778;2022-09-19T05:38:02;98805.72;;;10.70;74.53
46448;BME280;32145;50.390;30.778;2022-09-19T05:40:46;98808.97;;;10.73;74.22
46448;BME280;32145;50.390;30.778;2022-09-19T05:43:30;98815.75;;;10.75;74.30
46448;BME280;32145;50.390;30.778;2022-09-19T05:46:14;98823.34;;;10.73;74.25
46448;BME280;32145;50.390;30.778;2022-09-19T05:48:58;98827.44;;;10.76;74.54
46448;BME280;32145;50.390;30.778;2022-09-19T05:51:43;98837.78;;;10.79;73.80
46448;BME280;32145;50.390;30.778;2022-09-19T05:54:28;98836.13;;;10.78;74.24
46448;BME280;32145;50.390;30.778;2022-09-19T05:57:12;98846.97;;;10.78;74.15
46448;BME280;32145;50.390;30.778;2022-09-19T05:59:56;98848.59;;;10.79;74.00
46448;BME280;32145;50.390;30.778;2022-09-19T06:02:40;98851.06;;;10.80;74.18
46448;BME280;32145;50.390;30.778;2022-09-19T06:05:24;98857.84;;;10.78;73.42
46448;BME280;32145;50.390;30.778;2022-09-19T06:08:09;98866.81;;;10.83;73.81
46448;BME280;32145;50.390;30.778;2022-09-19T06:10:55;98872.25;;;10.83;74.56
46448;BME280;32145;50.390;30.778;2022-09-19T06:13:45;98891.75;;;10.86;73.87
46448;BME280;32145;50.390;30.778;2022-09-19T06:16:29;98882.84;;;10.90;73.64
46448;BME280;32145;50.390;30.778;2022-09-19T06:19:13;98890.38;;;10.83;74.49
46448;BME280;32145;50.390;30.778;2022-09-19T06:21:57;98895.59;;;10.90;73.92
46448;BME280;32145;50.390;30.778;2022-09-19T06:24:41;98901.88;;;10.95;73.27
46448;BME280;32145;50.390;30.778;2022-09-19T06:27:27;98899.19;;;11.01;74.04
46448;BME280;32145;50.390;30.778;2022-09-19T06:30:12;98907.97;;;11.13;74.18
46448;BME280;32145;50.390;30.778;2022-09-19T06:32:56;98919.47;;;11.31;73.28
46448;BME280;32145;50.390;30.778;2022-09-19T06:35:40;98924.88;;;11.31;73.44
46448;BME280;32145;50.390;30.778;2022-09-19T06:38:24;98934.38;;;11.28;73.11
46448;BME280;32145;50.390;30.778;2022-09-19T06:41:08;98931.41;;;11.30;72.95
46448;BME280;32145;50.390;30.778;2022-09-19T06:43:54;98928.44;;;11.37;72.93
46448;BME280;32145;50.390;30.778;2022-09-19T06:46:38;98944.44;;;11.33;73.28
46448;BME280;32145;50.390;30.778;2022-09-19T06:49:22;98948.88;;;11.50;72.81
46448;BME280;32145;50.390;30.778;2022-09-19T06:52:06;98937.78;;;11.56;72.02
46448;BME280;32145;50.390;30.778;2022-09-19T06:54:50;98948.34;;;11.53;72.50
46448;BME280;32145;50.390;30.778;2022-09-19T06:57:34;98952.75;;;11.64;72.08
46448;BME280;32145;50.390;30.778;2022-09-19T07:00:19;98949.56;;;11.78;71.21
46448;BME280;32145;50.390;30.778;2022-09-19T07:03:05;98961.34;;;11.99;71.08
46448;BME280;32145;50.390;30.778;2022-09-19T07:05:49;98961.94;;;12.06;70.47
46448;BME280;32145;50.390;30.778;2022-09-19T07:08:33;98950.06;;;12.23;70.19
46448;BME280;32145;50.390;30.778;2022-09-19T07:11:18;98972.09;;;12.37;69.56
46448;BME280;32145;50.390;30.778;2022-09-19T07:14:02;98972.09;;;12.47;68.00
46448;BME280;32145;50.390;30.778;2022-09-19T07:16:48;98975.34;;;12.29;67.85
46448;BME280;32145;50.390;30.778;2022-09-19T07:19:32;98965.00;;;12.36;67.69
46448;BME280;32145;50.390;30.778;2022-09-19T07:22:16;98956.31;;;12.34;67.18
46448;BME280;32145;50.390;30.778;2022-09-19T07:25:00;98975.38;;;12.44;67.02
46448;BME280;32145;50.390;30.778;2022-09-19T07:27:44;98984.06;;;12.52;66.94
46448;BME280;32145;50.390;30.778;2022-09-19T07:30:29;98986.84;;;12.72;65.92
46448;BME280;32145;50.390;30.778;2022-09-19T07:33:16;98994.44;;;12.70;66.61
46448;BME280;32145;50.390;30.778;2022-09-19T07:36:01;99002.31;;;12.56;66.34
46448;BME280;32145;50.390;30.778;2022-09-19T07:38:45;98990.06;;;12.64;66.23
46448;BME280;32145;50.390;30.778;2022-09-19T07:41:29;98994.47;;;12.86;66.45
46448;BME280;32145;50.390;30.778;2022-09-19T07:44:13;98999.66;;;13.03;65.96
46448;BME280;32145;50.390;30.778;2022-09-19T07:46:57;99016.53;;;13.00;64.40
46448;BME280;32145;50.390;30.778;2022-09-19T07:49:42;99000.47;;;13.04;64.45
46448;BME280;32145;50.390;30.778;2022-09-19T07:52:26;99021.41;;;13.08;64.83
46448;BME280;32145;50.390;30.778;2022-09-19T07:55:11;99017.88;;;13.08;63.45
46448;BME280;32145;50.390;30.778;2022-09-19T07:57:56;99030.41;;;12.88;63.83
46448;BME280;32145;50.390;30.778;2022-09-19T08:00:41;99045.59;;;12.84;64.67
46448;BME280;32145;50.390;30.778;2022-09-19T08:03:25;99039.56;;;12.61;64.73
46448;BME280;32145;50.390;30.778;2022-09-19T08:06:10;99056.94;;;12.44;65.62
46448;BME280;32145;50.390;30.778;2022-09-19T08:08:54;99052.53;;;12.33;66.00
46448;BME280;32145;50.390;30.778;2022-09-19T08:11:38;99056.88;;;12.29;66.65
46448;BME280;32145;50.390;30.778;2022-09-19T08:14:22;99063.63;;;12.26;66.83
46448;BME280;32145;50.390;30.778;2022-09-19T08:17:06;99074.22;;;12.22;66.63
46448;BME280;32145;50.390;30.778;2022-09-19T08:19:50;99076.38;;;12.20;67.01
46448;BME280;32145;50.390;30.778;2022-09-19T08:22:36;99073.09;;;12.13;67.29
46448;BME280;32145;50.390;30.778;2022-09-19T08:25:19;99080.16;;;12.14;66.91
46448;BME280;32145;50.390;30.778;2022-09-19T08:28:04;99079.63;;;12.17;66.96
46448;BME280;32145;50.390;30.778;2022-09-19T08:30:49;99073.69;;;12.26;67.20
46448;BME280;32145;50.390;30.778;2022-09-19T08:33:33;99073.72;;;12.36;67.02
46448;BME280;32145;50.390;30.778;2022-09-19T08:36:17;99076.00;;;12.60;66.40
46448;BME280;32145;50.390;30.778;2022-09-19T08:39:03;99083.91;;;12.67;65.70
46448;BME280;32145;50.390;30.778;2022-09-19T08:41:58;99083.34;;;12.70;65.55
46448;BME280;32145;50.390;30.778;2022-09-19T08:44:55;99089.59;;;12.60;65.46
46448;BME280;32145;50.390;30.778;2022-09-19T08:47:44;99087.38;;;12.52;65.81
46448;BME280;32145;50.390;30.778;2022-09-19T08:50:31;99099.34;;;12.50;65.64
46448;BME280;32145;50.390;30.778;2022-09-19T08:53:22;99099.34;;;12.45;66.16
46448;BME280;32145;50.390;30.778;2022-09-19T08:56:10;99115.88;;;12.39;65.82
46448;BME280;32145;50.390;30.778;2022-09-19T08:58:58;99112.31;;;12.33;66.03
46448;BME280;32145;50.390;30.778;2022-09-19T09:01:43;99122.59;;;12.26;65.27
46448;BME280;32145;50.390;30.778;2022-09-19T09:04:29;99119.31;;;12.23;64.71
46448;BME280;32145;50.390;30.778;2022-09-19T09:07:22;99107.50;;;12.45;64.76
46448;BME280;32145;50.390;30.778;2022-09-19T09:10:23;99121.69;;;12.63;63.64
46448;BME280;32145;50.390;30.778;2022-09-19T09:13:19;99121.44;;;12.70;64.12
46448;BME280;32145;50.390;30.778;2022-09-19T09:16:13;99124.19;;;12.75;64.21
46448;BME280;32145;50.390;30.778;2022-09-19T09:19:12;99129.63;;;12.75;63.82
46448;BME280;32145;50.390;30.778;2022-09-19T09:22:08;99141.31;;;12.75;63.69
46448;BME280;32145;50.390;30.778;2022-09-19T09:24:58;99148.38;;;12.71;64.00
46448;BME280;32145;50.390;30.778;2022-09-19T09:27:54;99135.59;;;12.72;63.58
46448;BME280;32145;50.390;30.778;2022-09-19T09:30:44;99150.56;;;12.80;64.16
46448;BME280;32145;50.390;30.778;2022-09-19T09:33:31;99148.41;;;12.76;63.22
46448;BME280;32145;50.390;30.778;2022-09-19T09:36:18;99160.34;;;12.70;62.81
46448;BME280;32145;50.390;30.778;2022-09-19T09:39:09;99164.66;;;12.66;62.58
46448;BME280;32145;50.390;30.778;2022-09-19T09:41:59;99167.88;;;12.58;62.84
46448;BME280;32145;50.390;30.778;2022-09-19T09:44:54;99162.19;;;12.59;63.25
46448;BME280;32145;50.390;30.778;2022-09-19T09:47:47;99176.38;;;12.72;63.76
46448;BME280;32145;50.390;30.778;2022-09-19T09:50:43;99171.47;;;12.74;62.99
46448;BME280;32145;50.390;30.778;2022-09-19T09:53:51;99174.56;;;12.93;62.78
46448;BME280;32145;50.390;30.778;2022-09-19T09:56:41;99175.47;;;13.14;62.38
46448;BME280;32145;50.390;30.778;2022-09-19T09:59:34;99178.50;;;13.39;61.23
46448;BME280;32145;50.390;30.778;2022-09-19T10:02:26;99179.38;;;13.55;61.10
46448;BME280;32145;50.390;30.778;2022-09-19T10:05:19;99181.56;;;13.74;60.47
46448;BME280;32145;50.390;30.778;2022-09-19T10:08:15;99180.75;;;13.94;59.96
46448;BME280;32145;50.390;30.778;2022-09-19T10:11:05;99187.84;;;14.00;59.26
46448;BME280;32145;50.390;30.778;2022-09-19T10:13:54;99190.03;;;14.03;58.67
46448;BME280;32145;50.390;30.778;2022-09-19T10:16:38;99180.19;;;13.97;58.93
46448;BME280;32145;50.390;30.778;2022-09-19T10:19:25;99194.63;;;14.03;58.34
46448;BME280;32145;50.390;30.778;2022-09-19T10:22:14;99198.19;;;13.88;59.01
46448;BME280;32145;50.390;30.778;2022-09-19T10:25:07;99210.19;;;13.92;59.48
46448;BME280;32145;50.390;30.778;2022-09-19T10:27:52;99196.81;;;14.01;59.39
46448;BME280;32145;50.390;30.778;2022-09-19T10:30:39;99199.28;;;14.08;59.32
46448;BME280;32145;50.390;30.778;2022-09-19T10:33:37;99205.56;;;13.98;58.59
46448;BME280;32145;50.390;30.778;2022-09-19T10:36:24;99217.53;;;13.86;59.15
46448;BME280;32145;50.390;30.778;2022-09-19T10:39:13;99218.34;;;13.92;58.63
46448;BME280;32145;50.390;30.778;2022-09-19T10:41:58;99219.44;;;14.01;57.67
46448;BME280;32145;50.390;30.778;2022-09-19T10:44:50;99217.25;;;14.09;57.54
46448;BME280;32145;50.390;30.778;2022-09-19T10:47:35;99223.25;;;14.21;57.46
46448;BME280;32145;50.390;30.778;2022-09-19T10:50:20;99218.31;;;14.44;56.54
46448;BME280;32145;50.390;30.778;2022-09-19T10:53:05;99222.41;;;14.47;55.39
46448;BME280;32145;50.390;30.778;2022-09-19T10:55:51;99230.81;;;14.61;54.46
46448;BME280;32145;50.390;30.778;2022-09-19T10:58:37;99237.38;;;14.54;54.09
46448;BME280;32145;50.390;30.778;2022-09-19T11:01:23;99234.91;;;14.63;54.17
46448;BME280;32145;50.390;30.778;2022-09-19T11:04:20;99242.78;;;14.75;53.84
46448;BME280;32145;50.390;30.778;2022-09-19T11:07:14;99238.94;;;14.87;53.25
46448;BME280;32145;50.390;30.778;2022-09-19T11:09:59;99253.44;;;14.82;52.60
46448;BME280;32145;50.390;30.778;2022-09-19T11:12:45;99248.81;;;14.72;53.29
46448;BME280;32145;50.390;30.778;2022-09-19T11:15:29;99255.38;;;14.55;53.22
46448;BME280;32145;50.390;30.778;2022-09-19T11:18:18;99261.41;;;14.47;54.00
46448;BME280;32145;50.390;30.778;2022-09-19T11:21:10;99259.50;;;14.37;54.04
46448;BME280;32145;50.390;30.778;2022-09-19T11:24:19;99272.28;;;14.42;54.76
46448;BME280;32145;50.390;30.778;2022-09-19T11:27:20;99272.28;;;14.42;55.01
46448;BME280;32145;50.390;30.778;2022-09-19T11:30:13;99279.94;;;14.29;54.55
46448;BME280;32145;50.390;30.778;2022-09-19T11:36:13;99273.09;;;14.53;54.40
46448;BME280;32145;50.390;30.778;2022-09-19T11:39:06;99272.84;;;14.60;53.61
46448;BME280;32145;50.390;30.778;2022-09-19T11:42:05;99270.09;;;14.54;52.92
46448;BME280;32145;50.390;30.778;2022-09-19T11:45:02;99282.09;;;14.59;52.58
46448;BME280;32145;50.390;30.778;2022-09-19T11:48:15;99286.97;;;14.82;51.49
46448;BME280;32145;50.390;30.778;2022-09-19T11:51:11;99282.63;;;14.92;51.58
46448;BME280;32145;50.390;30.778;2022-09-19T11:54:10;99295.19;;;14.88;52.55
46448;BME280;32145;50.390;30.778;2022-09-19T11:57:08;99289.19;;;14.60;51.51
46448;BME280;32145;50.390;30.778;2022-09-19T12:00:04;99291.66;;;14.51;52.00
46448;BME280;32145;50.390;30.778;2022-09-19T12:03:20;99290.00;;;14.44;52.67
46448;BME280;32145;50.390;30.778;2022-09-19T12:06:14;99290.84;;;14.40;53.82
46448;BME280;32145;50.390;30.778;2022-09-19T12:09:11;99295.47;;;14.44;53.95
46448;BME280;32145;50.390;30.778;2022-09-19T12:12:01;99287.03;;;14.36;52.98
46448;BME280;32145;50.390;30.778;2022-09-19T12:14:50;99288.66;;;14.42;54.03
46448;BME280;32145;50.390;30.778;2022-09-19T12:17:37;99293.28;;;14.47;53.57
46448;BME280;32145;50.390;30.778;2022-09-19T12:20:26;99290.84;;;14.45;53.27
46448;BME280;32145;50.390;30.778;2022-09-19T12:23:17;99297.94;;;14.51;53.31
46448;BME280;32145;50.390;30.778;2022-09-19T12:26:02;99302.25;;;14.63;53.28
46448;BME280;32145;50.390;30.778;2022-09-19T12:28:53;99297.91;;;14.72;53.54
46448;BME280;32145;50.390;30.778;2022-09-19T12:31:39;99300.06;;;14.86;53.76
46448;BME280;32145;50.390;30.778;2022-09-19T12:34:31;99302.53;;;14.98;53.08
46448;BME280;32145;50.390;30.778;2022-09-19T12:37:24;99307.34;;;15.16;52.44
46448;BME280;32145;50.390;30.778;2022-09-19T12:40:19;99305.72;;;15.15;52.32
46448;BME280;32145;50.390;30.778;2022-09-19T12:43:11;99309.25;;;15.21;53.02
46448;BME280;32145;50.390;30.778;2022-09-19T12:46:04;99303.44;;;15.49;51.78
46448;BME280;32145;50.390;30.778;2022-09-19T12:48:56;99317.28;;;15.57;50.84
46448;BME280;32145;50.390;30.778;2022-09-19T12:51:49;99317.25;;;15.68;49.76
46448;BME280;32145;50.390;30.778;2022-09-19T12:54:44;99325.97;;;15.75;49.97
46448;BME280;32145;50.390;30.778;2022-09-19T12:57:39;99319.91;;;15.83;49.03
46448;BME280;32145;50.390;30.778;2022-09-19T13:00:29;99320.94;;;15.93;48.30
46448;BME280;32145;50.390;30.778;2022-09-19T13:03:21;99322.09;;;15.87;47.89
46448;BME280;32145;50.390;30.778;2022-09-19T13:06:11;99323.31;;;16.10;47.40
46448;BME280;32145;50.390;30.778;2022-09-19T13:09:00;99327.84;;;16.30;46.78
46448;BME280;32145;50.390;30.778;2022-09-19T13:11:49;99334.25;;;16.45;45.71
46448;BME280;32145;50.390;30.778;2022-09-19T13:14:43;99330.41;;;16.51;46.50
46448;BME280;32145;50.390;30.778;2022-09-19T13:17:29;99327.91;;;16.20;45.44
46448;BME280;32145;50.390;30.778;2022-09-19T13:20:16;99329.13;;;15.93;46.33
46448;BME280;32145;50.390;30.778;2022-09-19T13:23:02;99327.59;;;15.76;47.18
46448;BME280;32145;50.390;30.778;2022-09-19T13:25:47;99336.16;;;15.59;47.80
46448;BME280;32145;50.390;30.778;2022-09-19T13:28:44;99345.47;;;15.48;48.20
46448;BME280;32145;50.390;30.778;2022-09-19T13:31:33;99340.22;;;15.67;48.29
46448;BME280;32145;50.390;30.778;2022-09-19T13:34:36;99337.41;;;15.77;47.20
46448;BME280;32145;50.390;30.778;2022-09-19T13:37:50;99348.63;;;15.81;47.09
46448;BME280;32145;50.390;30.778;2022-09-19T13:40:46;99359.66;;;15.55;47.13
46448;BME280;32145;50.390;30.778;2022-09-19T13:43:50;99369.31;;;15.31;47.68
46448;BME280;32145;50.390;30.778;2022-09-19T13:46:42;99367.72;;;15.15;48.01
46448;BME280;32145;50.390;30.778;2022-09-19T13:49:37;99361.72;;;15.13;49.04
46448;BME280;32145;50.390;30.778;2022-09-19T13:52:27;99363.34;;;15.14;48.98
46448;BME280;32145;50.390;30.778;2022-09-19T13:55:18;99366.34;;;15.12;48.75
46448;BME280;32145;50.390;30.778;2022-09-19T13:58:16;99367.19;;;15.07;49.02
46448;BME280;32145;50.390;30.778;2022-09-19T14:01:22;99365.53;;;15.12;49.42
46448;BME280;32145;50.390;30.778;2022-09-19T14:04:18;99360.59;;;15.24;49.08
46448;BME280;32145;50.390;30.778;2022-09-19T14:07:03;99373.63;;;15.48;49.09
46448;BME280;32145;50.390;30.778;2022-09-19T14:09:50;99373.53;;;15.69;48.16
46448;BME280;32145;50.390;30.778;2022-09-19T14:13:04;99373.19;;;15.86;48.09
46448;BME280;32145;50.390;30.778;2022-09-19T14:16:04;99365.84;;;15.76;47.01
46448;BME280;32145;50.390;30.778;2022-09-19T14:18:52;99373.56;;;15.64;47.50
46448;BME280;32145;50.390;30.778;2022-09-19T14:21:54;99375.78;;;15.56;48.21
46448;BME280;32145;50.390;30.778;2022-09-19T14:24:45;99380.72;;;15.49;48.97
46448;BME280;32145;50.390;30.778;2022-09-19T14:27:45;99393.88;;;15.26;48.91
46448;BME280;32145;50.390;30.778;2022-09-19T14:34:12;99396.69;;;14.85;49.13
46448;BME280;32145;50.390;30.778;2022-09-19T14:37:17;99398.03;;;14.87;49.17
46448;BME280;32145;50.390;30.778;2022-09-19T14:40:21;99396.66;;;15.11;49.11
46448;BME280;32145;50.390;30.778;2022-09-19T14:46:40;99398.00;;;15.18;48.89
46448;BME280;32145;50.390;30.778;2022-09-19T14:49:31;99399.09;;;15.12;48.77
46448;BME280;32145;50.390;30.778;2022-09-19T14:52:22;99400.75;;;15.08;49.91
46448;BME280;32145;50.390;30.778;2022-09-19T14:55:12;99399.13;;;15.07;50.23